sensor_id;sensor_type;location;lat;lon;timestamp;temperature;humidity
7331;DHT22;3706;49.198;7.064;2023-07-31T00:02:00;15.30;99.90
7331;DHT22;3706;49.198;7.064;2023-07-31T00:04:27;15.30;99.90
7331;DHT22;3706;49.198;7.064;2023-07-31T00:06:56;15.30;99.90
7331;DHT22;3706;49.198;7.064;2023-07-31T00:09:22;15.30;99.90
7331;DHT22;3706;49.198;7.064;2023-07-31T00:11:49;15.40;99.90
7331;DHT22;3706;49.198;7.064;2023-07-31T00:14:16;15.40;99.90
7331;DHT22;3706;49.198;7.064;2023-07-31T00:16:43;15.40;99.90
7331;DHT22;3706;49.198;7.064;2023-07-31T00:19:10;15.40;99.90
7331;DHT22;3706;49.198;7.064;2023-07-31T00:21:38;15.30;99.90
7331;DHT22;3706;49.198;7.064;2023-07-31T00:24:06;15.30;99.90
7331;DHT22;3706;49.198;7.064;2023-07-31T00:26:33;15.30;99.90
7331;DHT22;3706;49.198;7.064;2023-07-31T00:29:00;15.30;99.90
7331;DHT22;3706;49.198;7.064;2023-07-31T00:31:27;15.20;99.90
7331;DHT22;3706;49.198;7.064;2023-07-31T00:33:54;15.20;99.90
7331;DHT22;3706;49.198;7.064;2023-07-31T00:36:22;15.10;99.90
7331;DHT22;3706;49.198;7.064;2023-07-31T00:38:49;15.10;99.90
7331;DHT22;3706;49.198;7.064;2023-07-31T00:41:17;15.10;99.90
7331;DHT22;3706;49.198;7.064;2023-07-31T00:43:44;15.00;99.90
7331;DHT22;3706;49.198;7.064;2023-07-31T00:46:12;15.00;99.90
7331;DHT22;3706;49.198;7.064;2023-07-31T00:48:39;14.90;99.90
7331;DHT22;3706;49.198;7.064;2023-07-31T00:51:07;15.00;99.90
7331;DHT22;3706;49.198;7.064;2023-07-31T00:53:35;15.00;99.90
7331;DHT22;3706;49.198;7.064;2023-07-31T00:56:03;15.00;99.90
7331;DHT22;3706;49.198;7.064;2023-07-31T00:58:32;15.10;99.90
7331;DHT22;3706;49.198;7.064;2023-07-31T01:00:59;15.20;99.90
7331;DHT22;3706;49.198;7.064;2023-07-31T01:03:27;15.20;99.90
7331;DHT22;3706;49.198;7.064;2023-07-31T01:06:02;15.20;99.90
7331;DHT22;3706;49.198;7.064;2023-07-31T01:08:44;15.20;99.90
7331;DHT22;3706;49.198;7.064;2023-07-31T01:11:16;15.30;99.90
7331;DHT22;3706;49.198;7.064;2023-07-31T01:13:46;15.30;99.90
7331;DHT22;3706;49.198;7.064;2023-07-31T01:16:13;15.40;99.90
7331;DHT22;3706;49.198;7.064;2023-07-31T01:18:40;15.40;99.90
7331;DHT22;3706;49.198;7.064;2023-07-31T01:21:21;15.40;99.90
7331;DHT22;3706;49.198;7.064;2023-07-31T01:24:09;15.40;99.90
7331;DHT22;3706;49.198;7.064;2023-07-31T01:26:45;15.40;99.90
7331;DHT22;3706;49.198;7.064;2023-07-31T01:29:16;15.40;99.90
7331;DHT22;3706;49.198;7.064;2023-07-31T01:31:48;15.40;99.90
7331;DHT22;3706;49.198;7.064;2023-07-31T01:34:17;15.30;99.90
7331;DHT22;3706;49.198;7.064;2023-07-31T01:36:45;15.30;99.90
7331;DHT22;3706;49.198;7.064;2023-07-31T01:39:12;15.30;99.90
7331;DHT22;3706;49.198;7.064;2023-07-31T01:41:42;15.20;99.90
7331;DHT22;3706;49.198;7.064;2023-07-31T01:44:09;15.10;99.90
7331;DHT22;3706;49.198;7.064;2023-07-31T01:46:36;15.00;99.90
7331;DHT22;3706;49.198;7.064;2023-07-31T01:49:03;15.00;99.90
7331;DHT22;3706;49.198;7.064;2023-07-31T01:51:31;14.90;99.90
7331;DHT22;3706;49.198;7.064;2023-07-31T01:53:59;14.90;99.90
7331;DHT22;3706;49.198;7.064;2023-07-31T01:56:27;14.90;99.90
7331;DHT22;3706;49.198;7.064;2023-07-31T01:58:55;14.90;99.90
7331;DHT22;3706;49.198;7.064;2023-07-31T02:01:22;14.90;99.90
7331;DHT22;3706;49.198;7.064;2023-07-31T02:03:49;14.90;99.90
7331;DHT22;3706;49.198;7.064;2023-07-31T02:06:16;14.90;99.90
7331;DHT22;3706;49.198;7.064;2023-07-31T02:08:44;14.90;99.90
7331;DHT22;3706;49.198;7.064;2023-07-31T02:11:11;14.80;99.90
7331;DHT22;3706;49.198;7.064;2023-07-31T02:13:38;14.80;99.90
7331;DHT22;3706;49.198;7.064;2023-07-31T02:16:06;14.80;99.90
7331;DHT22;3706;49.198;7.064;2023-07-31T02:18:33;14.80;99.90
7331;DHT22;3706;49.198;7.064;2023-07-31T02:21:00;14.80;99.90
7331;DHT22;3706;49.198;7.064;2023-07-31T02:23:27;14.90;99.90
7331;DHT22;3706;49.198;7.064;2023-07-31T02:25:54;14.90;99.90
7331;DHT22;3706;49.198;7.064;2023-07-31T02:28:21;14.90;99.90
7331;DHT22;3706;49.198;7.064;2023-07-31T02:30:50;14.90;99.90
7331;DHT22;3706;49.198;7.064;2023-07-31T02:33:19;14.90;99.90
7331;DHT22;3706;49.198;7.064;2023-07-31T02:35:46;14.90;99.90
7331;DHT22;3706;49.198;7.064;2023-07-31T02:38:13;14.90;99.90
7331;DHT22;3706;49.198;7.064;2023-07-31T02:40:40;14.90;99.90
7331;DHT22;3706;49.198;7.064;2023-07-31T02:43:08;14.90;99.90
7331;DHT22;3706;49.198;7.064;2023-07-31T02:45:35;14.90;99.90
7331;DHT22;3706;49.198;7.064;2023-07-31T02:48:02;14.90;99.90
7331;DHT22;3706;49.198;7.064;2023-07-31T02:50:30;14.90;99.90
7331;DHT22;3706;49.198;7.064;2023-07-31T02:52:57;14.90;99.90
7331;DHT22;3706;49.198;7.064;2023-07-31T02:55:24;14.90;99.90
7331;DHT22;3706;49.198;7.064;2023-07-31T02:57:52;14.80;99.90
7331;DHT22;3706;49.198;7.064;2023-07-31T03:00:19;14.70;99.90
7331;DHT22;3706;49.198;7.064;2023-07-31T03:02:46;14.70;99.90
7331;DHT22;3706;49.198;7.064;2023-07-31T03:05:13;14.60;99.90
7331;DHT22;3706;49.198;7.064;2023-07-31T03:07:42;14.60;99.90
7331;DHT22;3706;49.198;7.064;2023-07-31T03:10:09;14.60;99.90
7331;DHT22;3706;49.198;7.064;2023-07-31T03:12:36;14.60;99.90
7331;DHT22;3706;49.198;7.064;2023-07-31T03:15:04;14.70;99.90
7331;DHT22;3706;49.198;7.064;2023-07-31T03:17:31;14.70;99.90
7331;DHT22;3706;49.198;7.064;2023-07-31T03:19:58;14.80;99.90
7331;DHT22;3706;49.198;7.064;2023-07-31T03:22:25;14.80;99.90
7331;DHT22;3706;49.198;7.064;2023-07-31T03:24:54;14.90;99.90
7331;DHT22;3706;49.198;7.064;2023-07-31T03:27:21;14.90;99.90
7331;DHT22;3706;49.198;7.064;2023-07-31T03:29:48;15.00;99.90
7331;DHT22;3706;49.198;7.064;2023-07-31T03:32:17;15.00;99.90
7331;DHT22;3706;49.198;7.064;2023-07-31T03:34:44;15.00;99.90
7331;DHT22;3706;49.198;7.064;2023-07-31T03:37:11;15.00;99.90
7331;DHT22;3706;49.198;7.064;2023-07-31T03:39:38;15.10;99.90
7331;DHT22;3706;49.198;7.064;2023-07-31T03:42:06;15.10;99.90
7331;DHT22;3706;49.198;7.064;2023-07-31T03:44:33;15.10;99.90
7331;DHT22;3706;49.198;7.064;2023-07-31T03:47:00;15.10;99.90
7331;DHT22;3706;49.198;7.064;2023-07-31T03:49:28;15.10;99.90
7331;DHT22;3706;49.198;7.064;2023-07-31T03:51:55;15.10;99.90
7331;DHT22;3706;49.198;7.064;2023-07-31T03:54:22;15.10;99.90
7331;DHT22;3706;49.198;7.064;2023-07-31T03:56:49;15.10;99.90
7331;DHT22;3706;49.198;7.064;2023-07-31T03:59:18;15.10;99.90
7331;DHT22;3706;49.198;7.064;2023-07-31T04:01:45;15.10;99.90
7331;DHT22;3706;49.198;7.064;2023-07-31T04:04:12;15.10;99.90
7331;DHT22;3706;49.198;7.064;2023-07-31T04:06:39;15.10;99.90
7331;DHT22;3706;49.198;7.064;2023-07-31T04:09:06;15.10;99.90
7331;DHT22;3706;49.198;7.064;2023-07-31T04:11:33;15.10;99.90
7331;DHT22;3706;49.198;7.064;2023-07-31T04:14:01;15.10;99.90
7331;DHT22;3706;49.198;7.064;2023-07-31T04:16:29;15.10;99.90
7331;DHT22;3706;49.198;7.064;2023-07-31T04:18:56;15.20;99.90
7331;DHT22;3706;49.198;7.064;2023-07-31T04:21:23;15.20;99.90
7331;DHT22;3706;49.198;7.064;2023-07-31T04:23:50;15.20;99.90
7331;DHT22;3706;49.198;7.064;2023-07-31T04:26:21;15.20;99.90
7331;DHT22;3706;49.198;7.064;2023-07-31T04:28:48;15.20;99.90
7331;DHT22;3706;49.198;7.064;2023-07-31T04:31:15;15.20;99.90
7331;DHT22;3706;49.198;7.064;2023-07-31T04:33:44;15.30;99.90
7331;DHT22;3706;49.198;7.064;2023-07-31T04:36:11;15.30;99.90
7331;DHT22;3706;49.198;7.064;2023-07-31T04:38:38;15.30;99.90
7331;DHT22;3706;49.198;7.064;2023-07-31T04:41:06;15.40;99.90
7331;DHT22;3706;49.198;7.064;2023-07-31T04:43:33;15.40;99.90
7331;DHT22;3706;49.198;7.064;2023-07-31T04:46:00;15.40;99.90
7331;DHT22;3706;49.198;7.064;2023-07-31T04:48:28;15.40;99.90
7331;DHT22;3706;49.198;7.064;2023-07-31T04:50:56;15.50;99.90
7331;DHT22;3706;49.198;7.064;2023-07-31T04:53:23;15.50;99.90
7331;DHT22;3706;49.198;7.064;2023-07-31T04:55:50;15.60;99.90
7331;DHT22;3706;49.198;7.064;2023-07-31T04:58:17;15.60;99.90
7331;DHT22;3706;49.198;7.064;2023-07-31T05:00:45;15.70;99.90
7331;DHT22;3706;49.198;7.064;2023-07-31T05:03:12;15.70;99.90
7331;DHT22;3706;49.198;7.064;2023-07-31T05:05:39;15.80;99.90
7331;DHT22;3706;49.198;7.064;2023-07-31T05:08:07;15.80;99.90
7331;DHT22;3706;49.198;7.064;2023-07-31T05:10:34;15.80;99.90
7331;DHT22;3706;49.198;7.064;2023-07-31T05:13:02;15.80;99.90
7331;DHT22;3706;49.198;7.064;2023-07-31T05:15:29;15.80;99.90
7331;DHT22;3706;49.198;7.064;2023-07-31T05:17:56;15.80;99.90
7331;DHT22;3706;49.198;7.064;2023-07-31T05:20:23;15.80;99.90
7331;DHT22;3706;49.198;7.064;2023-07-31T05:22:51;15.80;99.90
7331;DHT22;3706;49.198;7.064;2023-07-31T05:25:19;15.90;99.90
7331;DHT22;3706;49.198;7.064;2023-07-31T05:27:48;15.90;99.90
7331;DHT22;3706;49.198;7.064;2023-07-31T05:30:15;16.00;99.90
7331;DHT22;3706;49.198;7.064;2023-07-31T05:32:42;16.00;99.90
7331;DHT22;3706;49.198;7.064;2023-07-31T05:35:09;16.10;99.90
7331;DHT22;3706;49.198;7.064;2023-07-31T05:37:39;16.10;99.90
7331;DHT22;3706;49.198;7.064;2023-07-31T05:40:07;16.20;99.90
7331;DHT22;3706;49.198;7.064;2023-07-31T05:42:36;16.20;99.90
7331;DHT22;3706;49.198;7.064;2023-07-31T05:45:05;16.30;99.90
7331;DHT22;3706;49.198;7.064;2023-07-31T05:47:32;16.30;99.90
7331;DHT22;3706;49.198;7.064;2023-07-31T05:50:00;16.30;99.90
7331;DHT22;3706;49.198;7.064;2023-07-31T05:52:27;16.40;99.90
7331;DHT22;3706;49.198;7.064;2023-07-31T05:54:55;16.50;99.90
7331;DHT22;3706;49.198;7.064;2023-07-31T05:57:22;16.50;99.90
7331;DHT22;3706;49.198;7.064;2023-07-31T05:59:50;16.60;99.90
7331;DHT22;3706;49.198;7.064;2023-07-31T06:02:19;16.70;99.90
7331;DHT22;3706;49.198;7.064;2023-07-31T06:04:46;16.70;99.90
7331;DHT22;3706;49.198;7.064;2023-07-31T06:07:13;16.70;99.90
7331;DHT22;3706;49.198;7.064;2023-07-31T06:09:40;16.80;99.90
7331;DHT22;3706;49.198;7.064;2023-07-31T06:12:08;16.80;99.90
7331;DHT22;3706;49.198;7.064;2023-07-31T06:14:35;16.90;99.90
7331;DHT22;3706;49.198;7.064;2023-07-31T06:17:04;17.10;99.90
7331;DHT22;3706;49.198;7.064;2023-07-31T06:19:31;17.60;99.90
7331;DHT22;3706;49.198;7.064;2023-07-31T06:22:01;18.00;99.90
7331;DHT22;3706;49.198;7.064;2023-07-31T06:24:28;18.30;99.90
7331;DHT22;3706;49.198;7.064;2023-07-31T06:26:56;18.60;99.90
7331;DHT22;3706;49.198;7.064;2023-07-31T06:29:23;19.20;99.90
7331;DHT22;3706;49.198;7.064;2023-07-31T06:31:51;19.80;99.90
7331;DHT22;3706;49.198;7.064;2023-07-31T06:34:19;20.20;99.90
7331;DHT22;3706;49.198;7.064;2023-07-31T06:36:47;20.30;99.90
7331;DHT22;3706;49.198;7.064;2023-07-31T06:39:14;20.50;99.90
7331;DHT22;3706;49.198;7.064;2023-07-31T06:41:44;20.40;99.90
7331;DHT22;3706;49.198;7.064;2023-07-31T06:44:14;20.40;99.90
7331;DHT22;3706;49.198;7.064;2023-07-31T06:46:42;20.40;99.90
7331;DHT22;3706;49.198;7.064;2023-07-31T06:49:09;20.40;99.90
7331;DHT22;3706;49.198;7.064;2023-07-31T06:51:38;20.30;99.90
7331;DHT22;3706;49.198;7.064;2023-07-31T06:54:05;20.30;99.90
7331;DHT22;3706;49.198;7.064;2023-07-31T06:56:32;20.30;99.90
7331;DHT22;3706;49.198;7.064;2023-07-31T06:59:00;20.30;99.90
7331;DHT22;3706;49.198;7.064;2023-07-31T07:01:27;20.70;99.90
7331;DHT22;3706;49.198;7.064;2023-07-31T07:03:54;20.90;99.90
7331;DHT22;3706;49.198;7.064;2023-07-31T07:06:22;21.10;99.90
7331;DHT22;3706;49.198;7.064;2023-07-31T07:08:51;21.20;99.90
7331;DHT22;3706;49.198;7.064;2023-07-31T07:11:18;21.20;99.90
7331;DHT22;3706;49.198;7.064;2023-07-31T07:13:45;21.20;99.90
7331;DHT22;3706;49.198;7.064;2023-07-31T07:16:13;21.20;99.90
7331;DHT22;3706;49.198;7.064;2023-07-31T07:18:40;21.30;99.90
7331;DHT22;3706;49.198;7.064;2023-07-31T07:21:07;21.10;99.90
7331;DHT22;3706;49.198;7.064;2023-07-31T07:23:34;21.10;99.90
7331;DHT22;3706;49.198;7.064;2023-07-31T07:26:03;20.90;99.90
7331;DHT22;3706;49.198;7.064;2023-07-31T07:28:30;20.70;99.90
7331;DHT22;3706;49.198;7.064;2023-07-31T07:30:57;20.40;99.90
7331;DHT22;3706;49.198;7.064;2023-07-31T07:33:24;20.20;99.90
7331;DHT22;3706;49.198;7.064;2023-07-31T07:35:52;20.10;99.90
7331;DHT22;3706;49.198;7.064;2023-07-31T07:38:19;20.00;99.90
7331;DHT22;3706;49.198;7.064;2023-07-31T07:40:46;20.10;99.90
7331;DHT22;3706;49.198;7.064;2023-07-31T07:43:17;20.10;99.90
7331;DHT22;3706;49.198;7.064;2023-07-31T07:45:44;20.50;99.90
7331;DHT22;3706;49.198;7.064;2023-07-31T07:48:11;21.00;99.90
7331;DHT22;3706;49.198;7.064;2023-07-31T07:50:39;21.60;99.90
7331;DHT22;3706;49.198;7.064;2023-07-31T07:53:06;22.20;99.90
7331;DHT22;3706;49.198;7.064;2023-07-31T07:55:33;22.60;99.90
7331;DHT22;3706;49.198;7.064;2023-07-31T07:58:00;22.70;99.90
7331;DHT22;3706;49.198;7.064;2023-07-31T08:00:28;22.70;99.90
7331;DHT22;3706;49.198;7.064;2023-07-31T08:02:55;22.40;99.90
7331;DHT22;3706;49.198;7.064;2023-07-31T08:05:26;22.10;99.90
7331;DHT22;3706;49.198;7.064;2023-07-31T08:07:53;21.80;99.90
7331;DHT22;3706;49.198;7.064;2023-07-31T08:10:20;21.90;99.90
7331;DHT22;3706;49.198;7.064;2023-07-31T08:12:48;22.20;99.90
7331;DHT22;3706;49.198;7.064;2023-07-31T08:15:15;22.30;99.90
7331;DHT22;3706;49.198;7.064;2023-07-31T08:17:43;22.20;99.90
7331;DHT22;3706;49.198;7.064;2023-07-31T08:20:11;22.30;99.90
7331;DHT22;3706;49.198;7.064;2023-07-31T08:22:39;22.50;99.90
7331;DHT22;3706;49.198;7.064;2023-07-31T08:25:07;22.50;99.90
7331;DHT22;3706;49.198;7.064;2023-07-31T08:27:34;22.40;99.90
7331;DHT22;3706;49.198;7.064;2023-07-31T08:30:01;22.40;99.90
7331;DHT22;3706;49.198;7.064;2023-07-31T08:32:29;22.40;99.90
7331;DHT22;3706;49.198;7.064;2023-07-31T08:34:58;22.30;99.90
7331;DHT22;3706;49.198;7.064;2023-07-31T08:37:25;22.30;99.90
7331;DHT22;3706;49.198;7.064;2023-07-31T08:39:52;22.30;99.90
7331;DHT22;3706;49.198;7.064;2023-07-31T08:42:20;22.30;99.90
7331;DHT22;3706;49.198;7.064;2023-07-31T08:44:48;22.60;99.90
7331;DHT22;3706;49.198;7.064;2023-07-31T08:47:16;23.10;99.90
7331;DHT22;3706;49.198;7.064;2023-07-31T08:49:46;23.70;99.90
7331;DHT22;3706;49.198;7.064;2023-07-31T08:52:15;24.50;99.90
7331;DHT22;3706;49.198;7.064;2023-07-31T08:54:42;25.50;99.90
7331;DHT22;3706;49.198;7.064;2023-07-31T08:57:10;25.90;99.90
7331;DHT22;3706;49.198;7.064;2023-07-31T08:59:38;26.10;99.80
7331;DHT22;3706;49.198;7.064;2023-07-31T09:02:08;26.10;98.20
7331;DHT22;3706;49.198;7.064;2023-07-31T09:04:35;25.80;98.10
7331;DHT22;3706;49.198;7.064;2023-07-31T09:07:04;25.50;98.20
7331;DHT22;3706;49.198;7.064;2023-07-31T09:09:35;25.10;98.50
7331;DHT22;3706;49.198;7.064;2023-07-31T09:12:03;25.10;98.40
7331;DHT22;3706;49.198;7.064;2023-07-31T09:14:46;25.20;98.00
7331;DHT22;3706;49.198;7.064;2023-07-31T09:17:14;25.50;97.90
7331;DHT22;3706;49.198;7.064;2023-07-31T09:19:41;26.40;96.00
7331;DHT22;3706;49.198;7.064;2023-07-31T09:22:08;27.20;94.60
7331;DHT22;3706;49.198;7.064;2023-07-31T09:24:37;27.80;93.70
7331;DHT22;3706;49.198;7.064;2023-07-31T09:27:05;28.00;92.30
7331;DHT22;3706;49.198;7.064;2023-07-31T09:29:32;27.90;91.40
7331;DHT22;3706;49.198;7.064;2023-07-31T09:31:59;27.50;91.80
7331;DHT22;3706;49.198;7.064;2023-07-31T09:34:31;27.30;92.50
7331;DHT22;3706;49.198;7.064;2023-07-31T09:37:05;27.00;91.70
7331;DHT22;3706;49.198;7.064;2023-07-31T09:39:32;26.60;92.20
7331;DHT22;3706;49.198;7.064;2023-07-31T09:42:00;26.30;92.90
7331;DHT22;3706;49.198;7.064;2023-07-31T09:44:40;26.10;92.80
7331;DHT22;3706;49.198;7.064;2023-07-31T09:47:21;25.70;92.80
7331;DHT22;3706;49.198;7.064;2023-07-31T09:49:49;25.60;93.20
7331;DHT22;3706;49.198;7.064;2023-07-31T09:52:16;25.60;93.20
7331;DHT22;3706;49.198;7.064;2023-07-31T09:54:43;25.70;92.60
7331;DHT22;3706;49.198;7.064;2023-07-31T10:00:38;25.60;92.40
7331;DHT22;3706;49.198;7.064;2023-07-31T10:03:07;25.50;92.20
7331;DHT22;3706;49.198;7.064;2023-07-31T10:05:36;25.20;92.60
7331;DHT22;3706;49.198;7.064;2023-07-31T10:08:04;25.00;93.00
7331;DHT22;3706;49.198;7.064;2023-07-31T10:10:32;24.70;93.30
7331;DHT22;3706;49.198;7.064;2023-07-31T10:13:00;24.50;93.20
7331;DHT22;3706;49.198;7.064;2023-07-31T10:15:28;24.30;93.50
7331;DHT22;3706;49.198;7.064;2023-07-31T10:17:58;24.00;93.60
7331;DHT22;3706;49.198;7.064;2023-07-31T10:20:26;23.80;94.00
7331;DHT22;3706;49.198;7.064;2023-07-31T10:22:55;23.50;94.60
7331;DHT22;3706;49.198;7.064;2023-07-31T10:25:22;23.40;95.20
7331;DHT22;3706;49.198;7.064;2023-07-31T10:27:54;23.30;95.10
7331;DHT22;3706;49.198;7.064;2023-07-31T10:30:31;23.20;95.50
7331;DHT22;3706;49.198;7.064;2023-07-31T10:33:01;23.30;95.60
7331;DHT22;3706;49.198;7.064;2023-07-31T10:35:29;23.40;95.60
7331;DHT22;3706;49.198;7.064;2023-07-31T10:38:10;23.40;95.40
7331;DHT22;3706;49.198;7.064;2023-07-31T10:40:43;23.40;95.40
7331;DHT22;3706;49.198;7.064;2023-07-31T10:43:23;23.50;95.40
7331;DHT22;3706;49.198;7.064;2023-07-31T10:45:51;23.70;95.70
7331;DHT22;3706;49.198;7.064;2023-07-31T10:48:20;23.80;95.10
7331;DHT22;3706;49.198;7.064;2023-07-31T10:50:49;24.00;95.50
7331;DHT22;3706;49.198;7.064;2023-07-31T10:53:23;24.10;95.20
7331;DHT22;3706;49.198;7.064;2023-07-31T10:55:50;24.20;95.20
7331;DHT22;3706;49.198;7.064;2023-07-31T10:58:20;24.50;95.00
7331;DHT22;3706;49.198;7.064;2023-07-31T11:00:47;24.90;94.60
7331;DHT22;3706;49.198;7.064;2023-07-31T11:03:19;25.40;94.30
7331;DHT22;3706;49.198;7.064;2023-07-31T11:05:51;25.80;93.60
7331;DHT22;3706;49.198;7.064;2023-07-31T11:08:22;26.30;92.70
7331;DHT22;3706;49.198;7.064;2023-07-31T11:11:07;26.70;92.70
7331;DHT22;3706;49.198;7.064;2023-07-31T11:13:42;27.40;92.10
7331;DHT22;3706;49.198;7.064;2023-07-31T11:16:10;27.70;91.50
7331;DHT22;3706;49.198;7.064;2023-07-31T11:18:41;27.80;90.70
7331;DHT22;3706;49.198;7.064;2023-07-31T11:21:08;27.90;90.40
7331;DHT22;3706;49.198;7.064;2023-07-31T11:23:38;27.70;89.70
7331;DHT22;3706;49.198;7.064;2023-07-31T11:26:08;27.40;89.70
7331;DHT22;3706;49.198;7.064;2023-07-31T11:28:36;26.90;89.30
7331;DHT22;3706;49.198;7.064;2023-07-31T11:31:04;26.40;90.30
7331;DHT22;3706;49.198;7.064;2023-07-31T11:33:31;25.90;90.90
7331;DHT22;3706;49.198;7.064;2023-07-31T11:36:00;25.50;91.70
7331;DHT22;3706;49.198;7.064;2023-07-31T11:38:28;25.00;91.60
7331;DHT22;3706;49.198;7.064;2023-07-31T11:40:56;24.60;92.30
7331;DHT22;3706;49.198;7.064;2023-07-31T11:43:24;24.20;92.60
7331;DHT22;3706;49.198;7.064;2023-07-31T11:45:54;24.00;93.20
7331;DHT22;3706;49.198;7.064;2023-07-31T11:48:23;23.80;93.40
7331;DHT22;3706;49.198;7.064;2023-07-31T11:50:51;23.60;93.90
7331;DHT22;3706;49.198;7.064;2023-07-31T11:53:35;23.50;94.10
7331;DHT22;3706;49.198;7.064;2023-07-31T11:56:03;23.50;95.00
7331;DHT22;3706;49.198;7.064;2023-07-31T11:58:35;23.60;95.10
7331;DHT22;3706;49.198;7.064;2023-07-31T12:01:09;23.80;95.10
7331;DHT22;3706;49.198;7.064;2023-07-31T12:03:36;24.10;94.90
7331;DHT22;3706;49.198;7.064;2023-07-31T12:06:03;24.20;94.90
7331;DHT22;3706;49.198;7.064;2023-07-31T12:08:32;24.40;95.20
7331;DHT22;3706;49.198;7.064;2023-07-31T12:11:03;24.60;94.40
7331;DHT22;3706;49.198;7.064;2023-07-31T12:13:31;24.60;94.60
7331;DHT22;3706;49.198;7.064;2023-07-31T12:15:59;24.70;94.50
7331;DHT22;3706;49.198;7.064;2023-07-31T12:18:35;24.60;94.50
7331;DHT22;3706;49.198;7.064;2023-07-31T12:21:05;24.40;94.30
7331;DHT22;3706;49.198;7.064;2023-07-31T12:23:35;24.10;94.60
7331;DHT22;3706;49.198;7.064;2023-07-31T12:26:03;23.80;94.70
7331;DHT22;3706;49.198;7.064;2023-07-31T12:28:34;23.50;95.40
7331;DHT22;3706;49.198;7.064;2023-07-31T12:31:05;23.40;95.50
7331;DHT22;3706;49.198;7.064;2023-07-31T12:33:33;23.20;95.60
7331;DHT22;3706;49.198;7.064;2023-07-31T12:36:02;23.00;95.70
7331;DHT22;3706;49.198;7.064;2023-07-31T12:38:30;22.90;96.30
7331;DHT22;3706;49.198;7.064;2023-07-31T12:40:58;22.90;96.40
7331;DHT22;3706;49.198;7.064;2023-07-31T12:43:26;23.00;96.20
7331;DHT22;3706;49.198;7.064;2023-07-31T12:45:56;23.00;95.50
7331;DHT22;3706;49.198;7.064;2023-07-31T12:48:23;23.00;95.70
7331;DHT22;3706;49.198;7.064;2023-07-31T12:50:51;22.90;95.60
7331;DHT22;3706;49.198;7.064;2023-07-31T12:53:18;22.80;96.00
7331;DHT22;3706;49.198;7.064;2023-07-31T12:55:45;22.80;95.90
7331;DHT22;3706;49.198;7.064;2023-07-31T12:58:14;22.80;96.20
7331;DHT22;3706;49.198;7.064;2023-07-31T13:00:41;22.80;96.60
7331;DHT22;3706;49.198;7.064;2023-07-31T13:03:08;22.70;96.50
7331;DHT22;3706;49.198;7.064;2023-07-31T13:05:35;22.70;96.90
7331;DHT22;3706;49.198;7.064;2023-07-31T13:08:02;22.70;96.60
7331;DHT22;3706;49.198;7.064;2023-07-31T13:10:29;22.70;97.30
7331;DHT22;3706;49.198;7.064;2023-07-31T13:12:59;22.90;97.00
7331;DHT22;3706;49.198;7.064;2023-07-31T13:15:28;23.10;96.50
7331;DHT22;3706;49.198;7.064;2023-07-31T13:17:55;23.30;96.00
7331;DHT22;3706;49.198;7.064;2023-07-31T13:20:22;23.60;95.40
7331;DHT22;3706;49.198;7.064;2023-07-31T13:22:50;23.90;95.20
7331;DHT22;3706;49.198;7.064;2023-07-31T13:25:17;24.10;94.60
7331;DHT22;3706;49.198;7.064;2023-07-31T13:27:44;24.50;94.40
7331;DHT22;3706;49.198;7.064;2023-07-31T13:30:11;25.00;94.20
7331;DHT22;3706;49.198;7.064;2023-07-31T13:32:40;25.40;93.40
7331;DHT22;3706;49.198;7.064;2023-07-31T13:35:08;25.80;92.90
7331;DHT22;3706;49.198;7.064;2023-07-31T13:37:37;26.20;92.40
7331;DHT22;3706;49.198;7.064;2023-07-31T13:40:05;26.60;91.70
7331;DHT22;3706;49.198;7.064;2023-07-31T13:42:32;26.80;91.30
7331;DHT22;3706;49.198;7.064;2023-07-31T13:44:59;27.10;90.80
7331;DHT22;3706;49.198;7.064;2023-07-31T13:47:26;27.10;90.50
7331;DHT22;3706;49.198;7.064;2023-07-31T13:49:55;27.10;90.70
7331;DHT22;3706;49.198;7.064;2023-07-31T13:52:22;27.10;91.10
7331;DHT22;3706;49.198;7.064;2023-07-31T13:54:49;27.10;90.60
7331;DHT22;3706;49.198;7.064;2023-07-31T13:57:16;27.10;91.00
7331;DHT22;3706;49.198;7.064;2023-07-31T13:59:43;27.20;90.50
7331;DHT22;3706;49.198;7.064;2023-07-31T14:02:10;27.30;90.70
7331;DHT22;3706;49.198;7.064;2023-07-31T14:04:37;27.40;90.70
7331;DHT22;3706;49.198;7.064;2023-07-31T14:07:09;27.50;89.90
7331;DHT22;3706;49.198;7.064;2023-07-31T14:09:36;27.40;90.00
7331;DHT22;3706;49.198;7.064;2023-07-31T14:12:04;27.30;89.00
7331;DHT22;3706;49.198;7.064;2023-07-31T14:14:35;27.10;89.60
7331;DHT22;3706;49.198;7.064;2023-07-31T14:17:02;26.90;90.30
7331;DHT22;3706;49.198;7.064;2023-07-31T14:19:29;26.70;90.30
7331;DHT22;3706;49.198;7.064;2023-07-31T14:21:58;26.40;90.70
7331;DHT22;3706;49.198;7.064;2023-07-31T14:24:27;26.20;91.30
7331;DHT22;3706;49.198;7.064;2023-07-31T14:26:54;25.90;92.20
7331;DHT22;3706;49.198;7.064;2023-07-31T14:29:21;25.30;92.20
7331;DHT22;3706;49.198;7.064;2023-07-31T14:31:49;24.70;93.30
7331;DHT22;3706;49.198;7.064;2023-07-31T14:34:17;24.30;94.70
7331;DHT22;3706;49.198;7.064;2023-07-31T14:36:44;24.10;93.90
7331;DHT22;3706;49.198;7.064;2023-07-31T14:39:12;24.00;94.50
7331;DHT22;3706;49.198;7.064;2023-07-31T14:41:40;24.10;94.60
7331;DHT22;3706;49.198;7.064;2023-07-31T14:44:08;24.30;94.00
7331;DHT22;3706;49.198;7.064;2023-07-31T14:46:38;24.60;92.90
7331;DHT22;3706;49.198;7.064;2023-07-31T14:49:05;24.70;92.60
7331;DHT22;3706;49.198;7.064;2023-07-31T14:51:32;25.00;92.50
7331;DHT22;3706;49.198;7.064;2023-07-31T14:53:59;25.10;92.30
7331;DHT22;3706;49.198;7.064;2023-07-31T14:56:26;25.30;91.90
7331;DHT22;3706;49.198;7.064;2023-07-31T14:58:55;25.60;91.10
7331;DHT22;3706;49.198;7.064;2023-07-31T15:01:23;25.90;90.60
7331;DHT22;3706;49.198;7.064;2023-07-31T15:03:51;26.10;90.30
7331;DHT22;3706;49.198;7.064;2023-07-31T15:06:18;26.00;90.10
7331;DHT22;3706;49.198;7.064;2023-07-31T15:08:45;25.80;90.00
7331;DHT22;3706;49.198;7.064;2023-07-31T15:11:12;25.60;90.20
7331;DHT22;3706;49.198;7.064;2023-07-31T15:13:41;25.30;90.70
7331;DHT22;3706;49.198;7.064;2023-07-31T15:16:09;25.10;91.00
7331;DHT22;3706;49.198;7.064;2023-07-31T15:18:37;24.80;91.60
7331;DHT22;3706;49.198;7.064;2023-07-31T15:21:04;24.50;92.10
7331;DHT22;3706;49.198;7.064;2023-07-31T15:23:34;24.30;92.50
7331;DHT22;3706;49.198;7.064;2023-07-31T15:26:12;24.20;92.80
7331;DHT22;3706;49.198;7.064;2023-07-31T15:28:39;24.00;93.50
7331;DHT22;3706;49.198;7.064;2023-07-31T15:33:36;23.70;94.00
7331;DHT22;3706;49.198;7.064;2023-07-31T15:36:03;23.50;94.40
7331;DHT22;3706;49.198;7.064;2023-07-31T15:38:30;23.30;94.60
7331;DHT22;3706;49.198;7.064;2023-07-31T15:40:57;23.10;95.00
7331;DHT22;3706;49.198;7.064;2023-07-31T15:43:24;22.80;95.40
7331;DHT22;3706;49.198;7.064;2023-07-31T15:45:51;22.50;96.10
7331;DHT22;3706;49.198;7.064;2023-07-31T15:48:18;22.20;96.50
7331;DHT22;3706;49.198;7.064;2023-07-31T15:50:46;22.00;97.10
7331;DHT22;3706;49.198;7.064;2023-07-31T15:53:13;21.80;97.50
7331;DHT22;3706;49.198;7.064;2023-07-31T15:55:40;21.70;98.00
7331;DHT22;3706;49.198;7.064;2023-07-31T15:58:07;21.60;98.10
7331;DHT22;3706;49.198;7.064;2023-07-31T16:00:34;21.50;98.20
7331;DHT22;3706;49.198;7.064;2023-07-31T16:03:01;21.40;98.70
7331;DHT22;3706;49.198;7.064;2023-07-31T16:05:28;21.30;99.90
7331;DHT22;3706;49.198;7.064;2023-07-31T16:07:56;21.30;99.90
7331;DHT22;3706;49.198;7.064;2023-07-31T16:10:23;21.10;99.90
7331;DHT22;3706;49.198;7.064;2023-07-31T16:12:50;21.00;99.90
7331;DHT22;3706;49.198;7.064;2023-07-31T16:15:17;20.70;99.90